sensor_id;sensor_type;location;lat;lon;timestamp;P1;durP1;ratioP1;P2;durP2;ratioP2
82342;SDS011;72585;56.868;60.610;2023-09-30T00:00:35;43.97;;;18.23;;
82342;SDS011;72585;56.868;60.610;2023-09-30T00:03:01;46.40;;;21.33;;
82342;SDS011;72585;56.868;60.610;2023-09-30T00:05:27;47.83;;;20.98;;
82342;SDS011;72585;56.868;60.610;2023-09-30T00:10:17;42.00;;;20.43;;
82342;SDS011;72585;56.868;60.610;2023-09-30T00:12:43;52.10;;;21.92;;
82342;SDS011;72585;56.868;60.610;2023-09-30T00:15:09;55.30;;;24.08;;
82342;SDS011;72585;56.868;60.610;2023-09-30T00:17:34;49.95;;;22.02;;
82342;SDS011;72585;56.868;60.610;2023-09-30T00:20:00;52.67;;;22.83;;
82342;SDS011;72585;56.868;60.610;2023-09-30T00:24:50;48.80;;;19.73;;
82342;SDS011;72585;56.868;60.610;2023-09-30T00:27:16;61.10;;;23.85;;
82342;SDS011;72585;56.868;60.610;2023-09-30T00:29:41;65.40;;;23.75;;
82342;SDS011;72585;56.868;60.610;2023-09-30T00:32:07;61.35;;;23.65;;
82342;SDS011;72585;56.868;60.610;2023-09-30T00:34:33;53.88;;;24.00;;
82342;SDS011;72585;56.868;60.610;2023-09-30T00:36:58;70.57;;;28.30;;
82342;SDS011;72585;56.868;60.610;2023-09-30T00:39:24;61.30;;;24.88;;
82342;SDS011;72585;56.868;60.610;2023-09-30T00:41:52;51.78;;;26.33;;
82342;SDS011;72585;56.868;60.610;2023-09-30T00:44:17;57.63;;;23.80;;
82342;SDS011;72585;56.868;60.610;2023-09-30T00:46:43;75.05;;;27.25;;
82342;SDS011;72585;56.868;60.610;2023-09-30T00:49:09;60.17;;;27.33;;
82342;SDS011;72585;56.868;60.610;2023-09-30T00:51:35;62.72;;;26.27;;
82342;SDS011;72585;56.868;60.610;2023-09-30T00:54:01;63.10;;;28.67;;
82342;SDS011;72585;56.868;60.610;2023-09-30T00:58:52;59.83;;;24.40;;
82342;SDS011;72585;56.868;60.610;2023-09-30T01:01:17;64.90;;;26.30;;
82342;SDS011;72585;56.868;60.610;2023-09-30T01:03:44;55.70;;;23.95;;
82342;SDS011;72585;56.868;60.610;2023-09-30T01:06:09;62.65;;;24.95;;
82342;SDS011;72585;56.868;60.610;2023-09-30T01:08:35;48.03;;;20.60;;
82342;SDS011;72585;56.868;60.610;2023-09-30T01:11:00;67.88;;;27.05;;
82342;SDS011;72585;56.868;60.610;2023-09-30T01:13:35;55.72;;;21.77;;
82342;SDS011;72585;56.868;60.610;2023-09-30T01:16:04;57.10;;;22.55;;
82342;SDS011;72585;56.868;60.610;2023-09-30T01:18:30;63.38;;;23.55;;
82342;SDS011;72585;56.868;60.610;2023-09-30T01:20:56;58.13;;;22.50;;
82342;SDS011;72585;56.868;60.610;2023-09-30T01:23:22;62.30;;;24.23;;
82342;SDS011;72585;56.868;60.610;2023-09-30T01:25:47;55.75;;;25.08;;
82342;SDS011;72585;56.868;60.610;2023-09-30T01:28:14;51.28;;;23.55;;
82342;SDS011;72585;56.868;60.610;2023-09-30T01:30:41;59.35;;;24.52;;
82342;SDS011;72585;56.868;60.610;2023-09-30T01:33:09;62.78;;;26.23;;
82342;SDS011;72585;56.868;60.610;2023-09-30T01:35:34;54.28;;;24.38;;
82342;SDS011;72585;56.868;60.610;2023-09-30T01:38:00;65.28;;;23.83;;
82342;SDS011;72585;56.868;60.610;2023-09-30T01:40:25;58.97;;;24.45;;
82342;SDS011;72585;56.868;60.610;2023-09-30T01:42:51;52.70;;;22.33;;
82342;SDS011;72585;56.868;60.610;2023-09-30T01:47:41;57.40;;;22.43;;
82342;SDS011;72585;56.868;60.610;2023-09-30T01:50:07;50.33;;;22.73;;
82342;SDS011;72585;56.868;60.610;2023-09-30T01:52:32;55.13;;;21.15;;
82342;SDS011;72585;56.868;60.610;2023-09-30T01:54:58;44.67;;;19.15;;
82342;SDS011;72585;56.868;60.610;2023-09-30T01:57:23;52.80;;;20.70;;
82342;SDS011;72585;56.868;60.610;2023-09-30T01:59:49;55.92;;;22.65;;
82342;SDS011;72585;56.868;60.610;2023-09-30T02:02:14;65.80;;;25.00;;
82342;SDS011;72585;56.868;60.610;2023-09-30T02:04:41;54.00;;;23.42;;
82342;SDS011;72585;56.868;60.610;2023-09-30T02:07:07;69.60;;;26.58;;
82342;SDS011;72585;56.868;60.610;2023-09-30T02:09:32;44.80;;;21.10;;
82342;SDS011;72585;56.868;60.610;2023-09-30T02:11:58;42.17;;;19.27;;
82342;SDS011;72585;56.868;60.610;2023-09-30T02:14:23;49.60;;;22.33;;
82342;SDS011;72585;56.868;60.610;2023-09-30T02:16:49;43.40;;;19.77;;
82342;SDS011;72585;56.868;60.610;2023-09-30T02:19:15;63.63;;;21.42;;
82342;SDS011;72585;56.868;60.610;2023-09-30T02:21:40;53.58;;;21.70;;
82342;SDS011;72585;56.868;60.610;2023-09-30T02:24:06;47.30;;;19.20;;
82342;SDS011;72585;56.868;60.610;2023-09-30T02:26:31;55.20;;;22.65;;
82342;SDS011;72585;56.868;60.610;2023-09-30T02:28:58;52.08;;;21.98;;
82342;SDS011;72585;56.868;60.610;2023-09-30T02:31:23;42.78;;;18.80;;
82342;SDS011;72585;56.868;60.610;2023-09-30T02:33:49;48.00;;;21.08;;
82342;SDS011;72585;56.868;60.610;2023-09-30T02:36:14;53.83;;;19.63;;
82342;SDS011;72585;56.868;60.610;2023-09-30T02:38:41;46.03;;;21.23;;
82342;SDS011;72585;56.868;60.610;2023-09-30T02:41:06;45.55;;;21.00;;
82342;SDS011;72585;56.868;60.610;2023-09-30T02:43:31;38.05;;;18.83;;
82342;SDS011;72585;56.868;60.610;2023-09-30T02:45:58;38.88;;;18.65;;
82342;SDS011;72585;56.868;60.610;2023-09-30T02:48:23;48.45;;;19.35;;
82342;SDS011;72585;56.868;60.610;2023-09-30T02:50:48;48.00;;;18.95;;
82342;SDS011;72585;56.868;60.610;2023-09-30T02:53:14;38.95;;;18.73;;
82342;SDS011;72585;56.868;60.610;2023-09-30T02:55:40;37.25;;;17.40;;
82342;SDS011;72585;56.868;60.610;2023-09-30T02:58:06;46.38;;;19.20;;
82342;SDS011;72585;56.868;60.610;2023-09-30T03:00:32;38.78;;;18.75;;
82342;SDS011;72585;56.868;60.610;2023-09-30T03:02:59;45.47;;;18.48;;
82342;SDS011;72585;56.868;60.610;2023-09-30T03:05:24;44.63;;;19.05;;
82342;SDS011;72585;56.868;60.610;2023-09-30T03:07:50;45.28;;;18.73;;
82342;SDS011;72585;56.868;60.610;2023-09-30T03:10:18;52.92;;;22.02;;
82342;SDS011;72585;56.868;60.610;2023-09-30T03:12:46;48.47;;;21.08;;
82342;SDS011;72585;56.868;60.610;2023-09-30T03:15:11;68.68;;;24.38;;
82342;SDS011;72585;56.868;60.610;2023-09-30T03:17:37;63.97;;;21.90;;
82342;SDS011;72585;56.868;60.610;2023-09-30T03:20:02;65.82;;;24.38;;
82342;SDS011;72585;56.868;60.610;2023-09-30T03:22:34;57.92;;;24.17;;
82342;SDS011;72585;56.868;60.610;2023-09-30T03:25:00;58.90;;;23.88;;
82342;SDS011;72585;56.868;60.610;2023-09-30T03:27:25;62.28;;;21.73;;
82342;SDS011;72585;56.868;60.610;2023-09-30T03:29:51;61.10;;;25.10;;
82342;SDS011;72585;56.868;60.610;2023-09-30T03:32:16;67.82;;;28.45;;
82342;SDS011;72585;56.868;60.610;2023-09-30T03:34:41;64.88;;;28.25;;
82342;SDS011;72585;56.868;60.610;2023-09-30T03:37:10;66.03;;;27.90;;
82342;SDS011;72585;56.868;60.610;2023-09-30T03:39:35;67.05;;;24.90;;
82342;SDS011;72585;56.868;60.610;2023-09-30T03:42:00;78.25;;;31.38;;
82342;SDS011;72585;56.868;60.610;2023-09-30T03:44:26;78.97;;;31.13;;
82342;SDS011;72585;56.868;60.610;2023-09-30T03:46:51;76.53;;;32.28;;
82342;SDS011;72585;56.868;60.610;2023-09-30T03:51:45;80.70;;;30.92;;
82342;SDS011;72585;56.868;60.610;2023-09-30T03:54:10;75.82;;;29.15;;
82342;SDS011;72585;56.868;60.610;2023-09-30T03:56:36;88.93;;;33.45;;
82342;SDS011;72585;56.868;60.610;2023-09-30T03:59:03;113.55;;;38.33;;
82342;SDS011;72585;56.868;60.610;2023-09-30T04:01:29;89.60;;;34.97;;
82342;SDS011;72585;56.868;60.610;2023-09-30T04:03:56;96.05;;;35.67;;
82342;SDS011;72585;56.868;60.610;2023-09-30T04:06:21;102.95;;;36.47;;
82342;SDS011;72585;56.868;60.610;2023-09-30T04:08:47;107.20;;;39.28;;
82342;SDS011;72585;56.868;60.610;2023-09-30T04:11:12;128.57;;;42.67;;
82342;SDS011;72585;56.868;60.610;2023-09-30T04:13:43;121.80;;;44.70;;
82342;SDS011;72585;56.868;60.610;2023-09-30T04:16:09;122.68;;;43.75;;
82342;SDS011;72585;56.868;60.610;2023-09-30T04:18:34;128.52;;;44.80;;
82342;SDS011;72585;56.868;60.610;2023-09-30T04:21:00;116.40;;;43.13;;
82342;SDS011;72585;56.868;60.610;2023-09-30T04:23:25;127.07;;;41.95;;
82342;SDS011;72585;56.868;60.610;2023-09-30T04:25:50;120.88;;;45.13;;
82342;SDS011;72585;56.868;60.610;2023-09-30T04:28:16;139.95;;;48.03;;
82342;SDS011;72585;56.868;60.610;2023-09-30T04:30:49;124.60;;;45.10;;
82342;SDS011;72585;56.868;60.610;2023-09-30T04:33:15;97.43;;;37.30;;
82342;SDS011;72585;56.868;60.610;2023-09-30T04:35:42;62.55;;;21.77;;
82342;SDS011;72585;56.868;60.610;2023-09-30T04:38:08;27.33;;;12.48;;
82342;SDS011;72585;56.868;60.610;2023-09-30T04:40:34;13.52;;;8.60;;
82342;SDS011;72585;56.868;60.610;2023-09-30T04:42:59;12.68;;;7.85;;
82342;SDS011;72585;56.868;60.610;2023-09-30T04:45:25;15.18;;;6.00;;
82342;SDS011;72585;56.868;60.610;2023-09-30T04:47:54;6.30;;;3.88;;
82342;SDS011;72585;56.868;60.610;2023-09-30T04:50:21;8.27;;;4.47;;
82342;SDS011;72585;56.868;60.610;2023-09-30T04:52:47;4.40;;;3.22;;
82342;SDS011;72585;56.868;60.610;2023-09-30T04:55:14;7.10;;;4.18;;
82342;SDS011;72585;56.868;60.610;2023-09-30T04:57:41;4.32;;;2.65;;
82342;SDS011;72585;56.868;60.610;2023-09-30T05:00:10;6.78;;;3.55;;
82342;SDS011;72585;56.868;60.610;2023-09-30T05:02:36;6.68;;;3.35;;
82342;SDS011;72585;56.868;60.610;2023-09-30T05:05:01;7.70;;;2.88;;
82342;SDS011;72585;56.868;60.610;2023-09-30T05:07:30;10.52;;;3.30;;
82342;SDS011;72585;56.868;60.610;2023-09-30T05:09:56;11.32;;;3.50;;
82342;SDS011;72585;56.868;60.610;2023-09-30T05:12:21;11.27;;;3.58;;
82342;SDS011;72585;56.868;60.610;2023-09-30T05:14:46;7.80;;;3.97;;
82342;SDS011;72585;56.868;60.610;2023-09-30T05:17:13;7.40;;;3.63;;
82342;SDS011;72585;56.868;60.610;2023-09-30T05:19:38;8.80;;;4.32;;
82342;SDS011;72585;56.868;60.610;2023-09-30T05:22:04;13.45;;;4.63;;
82342;SDS011;72585;56.868;60.610;2023-09-30T05:24:30;10.50;;;4.90;;
82342;SDS011;72585;56.868;60.610;2023-09-30T05:26:56;6.63;;;3.70;;
82342;SDS011;72585;56.868;60.610;2023-09-30T05:29:22;9.43;;;3.50;;
82342;SDS011;72585;56.868;60.610;2023-09-30T05:31:47;4.90;;;3.75;;
82342;SDS011;72585;56.868;60.610;2023-09-30T05:34:14;9.57;;;3.40;;
82342;SDS011;72585;56.868;60.610;2023-09-30T05:36:39;5.60;;;3.60;;
82342;SDS011;72585;56.868;60.610;2023-09-30T05:39:05;13.77;;;5.10;;
82342;SDS011;72585;56.868;60.610;2023-09-30T05:41:31;8.55;;;5.55;;
82342;SDS011;72585;56.868;60.610;2023-09-30T05:46:21;12.57;;;4.38;;
82342;SDS011;72585;56.868;60.610;2023-09-30T05:48:47;8.98;;;4.85;;
82342;SDS011;72585;56.868;60.610;2023-09-30T05:51:12;13.10;;;4.90;;
82342;SDS011;72585;56.868;60.610;2023-09-30T05:53:41;11.45;;;6.07;;
82342;SDS011;72585;56.868;60.610;2023-09-30T05:56:07;9.45;;;4.63;;
82342;SDS011;72585;56.868;60.610;2023-09-30T05:58:32;19.42;;;4.75;;
82342;SDS011;72585;56.868;60.610;2023-09-30T06:00:58;8.75;;;4.88;;
82342;SDS011;72585;56.868;60.610;2023-09-30T06:03:25;16.90;;;5.47;;
82342;SDS011;72585;56.868;60.610;2023-09-30T06:05:54;14.45;;;6.10;;
82342;SDS011;72585;56.868;60.610;2023-09-30T06:08:21;11.20;;;5.68;;
82342;SDS011;72585;56.868;60.610;2023-09-30T06:10:46;17.30;;;6.00;;
82342;SDS011;72585;56.868;60.610;2023-09-30T06:13:12;17.30;;;5.82;;
82342;SDS011;72585;56.868;60.610;2023-09-30T06:15:38;13.70;;;5.72;;
82342;SDS011;72585;56.868;60.610;2023-09-30T06:18:07;19.92;;;6.95;;
82342;SDS011;72585;56.868;60.610;2023-09-30T06:20:32;12.70;;;5.90;;
82342;SDS011;72585;56.868;60.610;2023-09-30T06:22:58;18.92;;;6.25;;
82342;SDS011;72585;56.868;60.610;2023-09-30T06:25:26;9.13;;;5.75;;
82342;SDS011;72585;56.868;60.610;2023-09-30T06:27:52;14.23;;;6.88;;
82342;SDS011;72585;56.868;60.610;2023-09-30T06:30:18;16.10;;;5.43;;
82342;SDS011;72585;56.868;60.610;2023-09-30T06:32:46;12.65;;;5.25;;
82342;SDS011;72585;56.868;60.610;2023-09-30T06:35:12;10.68;;;4.38;;
82342;SDS011;72585;56.868;60.610;2023-09-30T06:37:38;20.90;;;7.63;;
82342;SDS011;72585;56.868;60.610;2023-09-30T06:40:07;11.18;;;5.22;;
82342;SDS011;72585;56.868;60.610;2023-09-30T06:42:34;23.50;;;6.97;;
82342;SDS011;72585;56.868;60.610;2023-09-30T06:45:00;14.82;;;6.28;;
82342;SDS011;72585;56.868;60.610;2023-09-30T06:47:26;16.55;;;6.75;;
82342;SDS011;72585;56.868;60.610;2023-09-30T06:49:52;18.40;;;6.55;;
82342;SDS011;72585;56.868;60.610;2023-09-30T06:54:42;20.47;;;7.20;;
82342;SDS011;72585;56.868;60.610;2023-09-30T06:59:34;13.07;;;7.07;;
82342;SDS011;72585;56.868;60.610;2023-09-30T07:02:00;20.23;;;8.02;;
82342;SDS011;72585;56.868;60.610;2023-09-30T07:04:26;17.55;;;5.85;;
82342;SDS011;72585;56.868;60.610;2023-09-30T07:06:54;20.63;;;6.00;;
82342;SDS011;72585;56.868;60.610;2023-09-30T07:09:21;8.38;;;7.03;;
82342;SDS011;72585;56.868;60.610;2023-09-30T07:11:46;13.77;;;6.10;;
82342;SDS011;72585;56.868;60.610;2023-09-30T07:14:14;20.70;;;10.35;;
82342;SDS011;72585;56.868;60.610;2023-09-30T07:16:40;17.10;;;6.25;;
82342;SDS011;72585;56.868;60.610;2023-09-30T07:19:06;14.50;;;6.72;;
82342;SDS011;72585;56.868;60.610;2023-09-30T07:21:32;15.18;;;6.55;;
82342;SDS011;72585;56.868;60.610;2023-09-30T07:23:57;14.75;;;7.07;;
82342;SDS011;72585;56.868;60.610;2023-09-30T07:26:26;16.55;;;6.00;;
82342;SDS011;72585;56.868;60.610;2023-09-30T07:28:52;11.75;;;5.72;;
82342;SDS011;72585;56.868;60.610;2023-09-30T07:31:19;15.80;;;6.07;;
82342;SDS011;72585;56.868;60.610;2023-09-30T07:33:44;10.52;;;6.47;;
82342;SDS011;72585;56.868;60.610;2023-09-30T07:38:36;8.10;;;5.00;;
82342;SDS011;72585;56.868;60.610;2023-09-30T07:43:28;10.27;;;5.68;;
82342;SDS011;72585;56.868;60.610;2023-09-30T07:45:53;20.08;;;8.82;;
82342;SDS011;72585;56.868;60.610;2023-09-30T07:48:19;12.32;;;6.78;;
82342;SDS011;72585;56.868;60.610;2023-09-30T07:53:10;20.13;;;5.10;;
82342;SDS011;72585;56.868;60.610;2023-09-30T07:55:37;7.20;;;5.13;;
82342;SDS011;72585;56.868;60.610;2023-09-30T07:58:02;9.40;;;5.05;;
82342;SDS011;72585;56.868;60.610;2023-09-30T08:02:53;30.70;;;6.27;;
82342;SDS011;72585;56.868;60.610;2023-09-30T08:05:18;20.30;;;7.55;;
82342;SDS011;72585;56.868;60.610;2023-09-30T08:10:11;20.58;;;4.60;;
82342;SDS011;72585;56.868;60.610;2023-09-30T08:12:38;20.70;;;6.82;;
82342;SDS011;72585;56.868;60.610;2023-09-30T08:15:04;14.88;;;6.30;;
82342;SDS011;72585;56.868;60.610;2023-09-30T08:17:31;12.88;;;5.30;;
82342;SDS011;72585;56.868;60.610;2023-09-30T08:19:56;6.65;;;5.13;;
82342;SDS011;72585;56.868;60.610;2023-09-30T08:22:22;8.98;;;5.47;;
82342;SDS011;72585;56.868;60.610;2023-09-30T08:24:52;18.25;;;8.10;;
82342;SDS011;72585;56.868;60.610;2023-09-30T08:27:18;20.08;;;7.03;;
82342;SDS011;72585;56.868;60.610;2023-09-30T08:29:43;16.70;;;7.30;;
82342;SDS011;72585;56.868;60.610;2023-09-30T08:32:10;17.77;;;8.82;;
82342;SDS011;72585;56.868;60.610;2023-09-30T08:34:35;18.13;;;7.65;;
82342;SDS011;72585;56.868;60.610;2023-09-30T08:37:01;14.52;;;7.78;;
82342;SDS011;72585;56.868;60.610;2023-09-30T08:39:27;18.83;;;9.05;;
82342;SDS011;72585;56.868;60.610;2023-09-30T08:41:54;14.73;;;9.65;;
82342;SDS011;72585;56.868;60.610;2023-09-30T08:44:20;13.45;;;9.38;;
82342;SDS011;72585;56.868;60.610;2023-09-30T08:46:45;14.02;;;7.22;;
82342;SDS011;72585;56.868;60.610;2023-09-30T08:49:12;18.52;;;9.50;;
82342;SDS011;72585;56.868;60.610;2023-09-30T08:51:39;19.08;;;9.85;;
82342;SDS011;72585;56.868;60.610;2023-09-30T08:54:05;9.95;;;6.40;;
82342;SDS011;72585;56.868;60.610;2023-09-30T08:56:31;16.90;;;7.57;;
82342;SDS011;72585;56.868;60.610;2023-09-30T08:58:59;14.60;;;8.43;;
82342;SDS011;72585;56.868;60.610;2023-09-30T09:01:29;19.60;;;10.88;;
82342;SDS011;72585;56.868;60.610;2023-09-30T09:03:54;29.10;;;14.38;;
82342;SDS011;72585;56.868;60.610;2023-09-30T09:06:21;24.88;;;10.77;;
82342;SDS011;72585;56.868;60.610;2023-09-30T09:08:46;12.23;;;7.82;;
82342;SDS011;72585;56.868;60.610;2023-09-30T09:11:12;15.52;;;6.68;;
82342;SDS011;72585;56.868;60.610;2023-09-30T09:13:46;12.43;;;5.20;;
82342;SDS011;72585;56.868;60.610;2023-09-30T09:16:14;12.65;;;6.20;;
82342;SDS011;72585;56.868;60.610;2023-09-30T09:18:40;20.48;;;6.75;;
82342;SDS011;72585;56.868;60.610;2023-09-30T09:23:41;8.55;;;5.85;;
82342;SDS011;72585;56.868;60.610;2023-09-30T09:26:07;15.82;;;6.65;;
82342;SDS011;72585;56.868;60.610;2023-09-30T09:28:37;12.48;;;6.65;;
82342;SDS011;72585;56.868;60.610;2023-09-30T09:31:18;17.60;;;6.65;;
82342;SDS011;72585;56.868;60.610;2023-09-30T09:33:44;15.05;;;6.43;;
82342;SDS011;72585;56.868;60.610;2023-09-30T09:36:09;16.33;;;6.60;;
82342;SDS011;72585;56.868;60.610;2023-09-30T09:38:44;16.95;;;7.75;;
82342;SDS011;72585;56.868;60.610;2023-09-30T09:41:10;17.98;;;6.93;;
82342;SDS011;72585;56.868;60.610;2023-09-30T09:43:36;10.43;;;6.22;;
82342;SDS011;72585;56.868;60.610;2023-09-30T09:46:02;19.13;;;8.55;;
82342;SDS011;72585;56.868;60.610;2023-09-30T09:48:28;17.00;;;6.97;;
82342;SDS011;72585;56.868;60.610;2023-09-30T09:50:54;13.27;;;6.13;;
82342;SDS011;72585;56.868;60.610;2023-09-30T09:53:20;17.85;;;6.97;;
82342;SDS011;72585;56.868;60.610;2023-09-30T09:55:46;14.60;;;6.65;;
82342;SDS011;72585;56.868;60.610;2023-09-30T09:58:12;13.15;;;7.18;;
82342;SDS011;72585;56.868;60.610;2023-09-30T10:00:38;10.90;;;6.25;;
82342;SDS011;72585;56.868;60.610;2023-09-30T10:05:29;7.63;;;5.40;;
82342;SDS011;72585;56.868;60.610;2023-09-30T10:10:20;9.45;;;5.70;;
82342;SDS011;72585;56.868;60.610;2023-09-30T10:20:15;8.47;;;4.40;;
82342;SDS011;72585;56.868;60.610;2023-09-30T10:22:41;10.80;;;5.82;;
82342;SDS011;72585;56.868;60.610;2023-09-30T10:25:51;6.35;;;5.18;;
82342;SDS011;72585;56.868;60.610;2023-09-30T10:27:57;10.55;;;5.03;;
82342;SDS011;72585;56.868;60.610;2023-09-30T10:30:23;14.70;;;5.28;;
82342;SDS011;72585;56.868;60.610;2023-09-30T10:40:40;6.47;;;4.32;;
82342;SDS011;72585;56.868;60.610;2023-09-30T10:43:06;11.82;;;5.65;;
82342;SDS011;72585;56.868;60.610;2023-09-30T10:45:51;9.38;;;4.40;;
82342;SDS011;72585;56.868;60.610;2023-09-30T10:50:58;6.47;;;3.83;;
82342;SDS011;72585;56.868;60.610;2023-09-30T10:53:27;9.02;;;4.05;;
82342;SDS011;72585;56.868;60.610;2023-09-30T10:55:59;12.00;;;5.53;;
82342;SDS011;72585;56.868;60.610;2023-09-30T11:01:09;14.70;;;7.32;;
82342;SDS011;72585;56.868;60.610;2023-09-30T11:03:35;6.78;;;3.72;;
82342;SDS011;72585;56.868;60.610;2023-09-30T11:06:01;12.90;;;4.65;;
82342;SDS011;72585;56.868;60.610;2023-09-30T11:08:28;5.82;;;4.65;;
82342;SDS011;72585;56.868;60.610;2023-09-30T11:10:55;7.95;;;4.60;;
82342;SDS011;72585;56.868;60.610;2023-09-30T11:13:21;10.48;;;5.55;;
82342;SDS011;72585;56.868;60.610;2023-09-30T11:15:47;5.70;;;4.82;;
82342;SDS011;72585;56.868;60.610;2023-09-30T11:20:37;8.13;;;4.83;;
82342;SDS011;72585;56.868;60.610;2023-09-30T11:23:03;12.13;;;4.60;;
82342;SDS011;72585;56.868;60.610;2023-09-30T11:25:28;12.43;;;4.55;;
82342;SDS011;72585;56.868;60.610;2023-09-30T11:28:12;7.10;;;3.75;;
82342;SDS011;72585;56.868;60.610;2023-09-30T11:30:52;6.03;;;3.53;;
82342;SDS011;72585;56.868;60.610;2023-09-30T11:33:17;7.03;;;4.32;;
82342;SDS011;72585;56.868;60.610;2023-09-30T11:35:55;7.75;;;4.35;;
82342;SDS011;72585;56.868;60.610;2023-09-30T11:38:20;18.42;;;6.80;;
82342;SDS011;72585;56.868;60.610;2023-09-30T11:41:02;13.27;;;5.80;;
82342;SDS011;72585;56.868;60.610;2023-09-30T11:43:29;20.45;;;8.25;;
82342;SDS011;72585;56.868;60.610;2023-09-30T11:46:10;14.73;;;5.13;;
82342;SDS011;72585;56.868;60.610;2023-09-30T11:48:36;6.97;;;3.53;;
82342;SDS011;72585;56.868;60.610;2023-09-30T11:51:02;5.63;;;3.50;;
82342;SDS011;72585;56.868;60.610;2023-09-30T11:53:32;7.72;;;3.85;;
82342;SDS011;72585;56.868;60.610;2023-09-30T11:56:00;6.47;;;3.25;;
82342;SDS011;72585;56.868;60.610;2023-09-30T11:58:28;8.60;;;4.13;;
82342;SDS011;72585;56.868;60.610;2023-09-30T12:00:57;7.35;;;3.75;;
82342;SDS011;72585;56.868;60.610;2023-09-30T12:03:24;5.75;;;4.65;;
82342;SDS011;72585;56.868;60.610;2023-09-30T12:05:50;7.15;;;3.20;;
82342;SDS011;72585;56.868;60.610;2023-09-30T12:08:16;5.63;;;3.63;;
82342;SDS011;72585;56.868;60.610;2023-09-30T12:10:41;5.50;;;3.85;;
82342;SDS011;72585;56.868;60.610;2023-09-30T12:13:07;6.68;;;4.13;;
82342;SDS011;72585;56.868;60.610;2023-09-30T12:15:32;7.45;;;3.95;;
82342;SDS011;72585;56.868;60.610;2023-09-30T12:17:58;5.85;;;4.28;;
82342;SDS011;72585;56.868;60.610;2023-09-30T12:20:23;8.60;;;4.13;;
82342;SDS011;72585;56.868;60.610;2023-09-30T12:22:50;7.25;;;4.07;;
82342;SDS011;72585;56.868;60.610;2023-09-30T12:25:16;5.60;;;3.92;;
82342;SDS011;72585;56.868;60.610;2023-09-30T12:27:44;7.07;;;3.33;;
82342;SDS011;72585;56.868;60.610;2023-09-30T12:30:11;6.18;;;3.72;;
82342;SDS011;72585;56.868;60.610;2023-09-30T12:32:39;6.85;;;3.72;;
82342;SDS011;72585;56.868;60.610;2023-09-30T12:35:04;9.88;;;4.18;;
82342;SDS011;72585;56.868;60.610;2023-09-30T12:37:30;5.78;;;4.28;;
82342;SDS011;72585;56.868;60.610;2023-09-30T12:42:20;8.07;;;4.03;;
82342;SDS011;72585;56.868;60.610;2023-09-30T12:44:46;17.67;;;9.68;;
82342;SDS011;72585;56.868;60.610;2023-09-30T12:47:11;9.77;;;4.35;;
82342;SDS011;72585;56.868;60.610;2023-09-30T12:49:38;11.05;;;6.22;;
82342;SDS011;72585;56.868;60.610;2023-09-30T12:52:03;9.63;;;4.00;;
82342;SDS011;72585;56.868;60.610;2023-09-30T12:54:28;9.90;;;4.97;;
82342;SDS011;72585;56.868;60.610;2023-09-30T12:59:19;9.77;;;5.03;;
82342;SDS011;72585;56.868;60.610;2023-09-30T13:01:49;8.27;;;5.53;;
82342;SDS011;72585;56.868;60.610;2023-09-30T13:04:15;8.70;;;4.43;;
82342;SDS011;72585;56.868;60.610;2023-09-30T13:06:40;13.68;;;6.00;;
82342;SDS011;72585;56.868;60.610;2023-09-30T13:11:33;10.40;;;5.38;;
82342;SDS011;72585;56.868;60.610;2023-09-30T13:13:59;9.93;;;5.05;;
82342;SDS011;72585;56.868;60.610;2023-09-30T13:16:24;8.45;;;5.03;;
82342;SDS011;72585;56.868;60.610;2023-09-30T13:18:50;10.27;;;4.70;;
82342;SDS011;72585;56.868;60.610;2023-09-30T13:21:17;8.82;;;5.25;;
82342;SDS011;72585;56.868;60.610;2023-09-30T13:23:43;14.02;;;6.30;;
82342;SDS011;72585;56.868;60.610;2023-09-30T13:26:08;10.98;;;5.55;;
82342;SDS011;72585;56.868;60.610;2023-09-30T13:28:34;7.97;;;5.30;;
82342;SDS011;72585;56.868;60.610;2023-09-30T13:30:59;8.15;;;5.05;;
82342;SDS011;72585;56.868;60.610;2023-09-30T13:33:25;9.02;;;5.88;;
82342;SDS011;72585;56.868;60.610;2023-09-30T13:38:15;17.33;;;8.20;;
82342;SDS011;72585;56.868;60.610;2023-09-30T13:40:41;8.05;;;5.50;;
82342;SDS011;72585;56.868;60.610;2023-09-30T13:43:06;8.20;;;4.50;;
82342;SDS011;72585;56.868;60.610;2023-09-30T13:45:32;9.30;;;5.65;;
82342;SDS011;72585;56.868;60.610;2023-09-30T13:47:58;12.82;;;4.97;;
82342;SDS011;72585;56.868;60.610;2023-09-30T13:50:23;10.15;;;5.35;;
82342;SDS011;72585;56.868;60.610;2023-09-30T13:52:49;10.00;;;4.38;;
82342;SDS011;72585;56.868;60.610;2023-09-30T13:55:15;9.02;;;5.45;;
82342;SDS011;72585;56.868;60.610;2023-09-30T13:57:47;13.30;;;5.30;;
82342;SDS011;72585;56.868;60.610;2023-09-30T14:00:12;9.52;;;6.13;;
82342;SDS011;72585;56.868;60.610;2023-09-30T14:02:38;13.15;;;6.28;;
82342;SDS011;72585;56.868;60.610;2023-09-30T14:05:05;8.70;;;6.03;;
82342;SDS011;72585;56.868;60.610;2023-09-30T14:07:37;7.22;;;5.25;;
82342;SDS011;72585;56.868;60.610;2023-09-30T14:10:05;13.68;;;7.95;;
82342;SDS011;72585;56.868;60.610;2023-09-30T14:12:31;14.23;;;7.00;;
82342;SDS011;72585;56.868;60.610;2023-09-30T14:14:56;10.30;;;5.25;;
82342;SDS011;72585;56.868;60.610;2023-09-30T14:17:22;10.68;;;6.10;;
82342;SDS011;72585;56.868;60.610;2023-09-30T14:22:12;7.70;;;5.50;;
82342;SDS011;72585;56.868;60.610;2023-09-30T14:24:38;9.13;;;6.40;;
82342;SDS011;72585;56.868;60.610;2023-09-30T14:27:04;9.15;;;5.63;;
82342;SDS011;72585;56.868;60.610;2023-09-30T14:31:55;16.65;;;6.95;;
82342;SDS011;72585;56.868;60.610;2023-09-30T14:34:21;16.27;;;6.50;;
82342;SDS011;72585;56.868;60.610;2023-09-30T14:36:47;15.25;;;7.95;;
82342;SDS011;72585;56.868;60.610;2023-09-30T14:41:38;12.80;;;7.30;;
82342;SDS011;72585;56.868;60.610;2023-09-30T14:44:04;16.42;;;8.20;;
82342;SDS011;72585;56.868;60.610;2023-09-30T14:46:33;12.82;;;7.75;;
82342;SDS011;72585;56.868;60.610;2023-09-30T14:48:59;20.15;;;7.63;;
82342;SDS011;72585;56.868;60.610;2023-09-30T14:51:25;12.55;;;6.53;;
82342;SDS011;72585;56.868;60.610;2023-09-30T14:53:51;16.88;;;8.38;;
82342;SDS011;72585;56.868;60.610;2023-09-30T14:56:17;18.92;;;8.25;;
82342;SDS011;72585;56.868;60.610;2023-09-30T14:58:43;9.18;;;5.53;;
82342;SDS011;72585;56.868;60.610;2023-09-30T15:01:09;11.98;;;7.00;;
82342;SDS011;72585;56.868;60.610;2023-09-30T15:03:36;11.27;;;6.57;;
82342;SDS011;72585;56.868;60.610;2023-09-30T15:06:04;12.23;;;7.40;;
82342;SDS011;72585;56.868;60.610;2023-09-30T15:08:30;14.60;;;7.70;;
82342;SDS011;72585;56.868;60.610;2023-09-30T15:11:00;13.73;;;6.57;;
82342;SDS011;72585;56.868;60.610;2023-09-30T15:13:25;16.33;;;7.25;;
82342;SDS011;72585;56.868;60.610;2023-09-30T15:15:51;11.48;;;7.70;;
82342;SDS011;72585;56.868;60.610;2023-09-30T15:20:42;16.33;;;9.07;;
82342;SDS011;72585;56.868;60.610;2023-09-30T15:23:08;19.77;;;8.45;;
82342;SDS011;72585;56.868;60.610;2023-09-30T15:25:39;14.10;;;8.02;;
82342;SDS011;72585;56.868;60.610;2023-09-30T15:28:05;15.48;;;6.95;;
82342;SDS011;72585;56.868;60.610;2023-09-30T15:30:30;14.25;;;9.25;;
82342;SDS011;72585;56.868;60.610;2023-09-30T15:32:56;23.10;;;9.05;;
82342;SDS011;72585;56.868;60.610;2023-09-30T15:35:22;14.30;;;7.22;;
82342;SDS011;72585;56.868;60.610;2023-09-30T15:37:48;14.45;;;7.22;;